Dades meteomassalio
Diari Summary for Agost 28, 2017 Units:  Metric    English   Both
« Previous Day
Next Day »
Diari Semanal Mensual Anual Personalitzat
  Maxima: Minima: Mijana:
Temperatura: 32.9 °C 21.2 °C 26.7 °C
Rosada: 20.9 °C 15.3 °C 18.8 °C
Humitat: 85 % 35 % 64 %
Velocitat del vent: 35.2 km/h 0.0 km/h 10.4 km/h
Racha vent: 35.2 km/h - -
Vent:- - SSW
Pressio: 1017.2 hPa 1013.1 hPa -
Pluja: 0.0 mm    
Historical Graphs
 
 
Tabular Data for Agost 28, 2017
Time Temperature Dew Point Pressure Wind Wind Speed Wind Gust Humidity Rainfall Rate (Hourly) solar Conditions
16:52 32.8 °C 15.3 °C 1015.1 hPa ESE 6.4 km/h 6.4 km/h 35 % 0.0 mm 842.0 W/m2 OVC
16:53 32.8 °C 15.3 °C 1015.1 hPa East 11.3 km/h 11.3 km/h 35 % 0.0 mm 842.0 W/m2 OVC
16:58 32.9 °C 15.4 °C 1014.8 hPa SE 13.0 km/h 13.0 km/h 35 % 0.0 mm 842.0 W/m2 CLR
17:03 32.8 °C 15.3 °C 1014.4 hPa ESE 16.7 km/h 16.7 km/h 35 % 0.0 mm 218.0 W/m2 CLR
17:08 32.6 °C 15.6 °C 1014.4 hPa SSE 16.7 km/h 16.7 km/h 36 % 0.0 mm 241.0 W/m2 CLR
17:13 32.4 °C 15.8 °C 1014.1 hPa ENE 9.3 km/h 9.3 km/h 37 % 0.0 mm 232.0 W/m2 CLR
17:18 32.3 °C 16.2 °C 1013.8 hPa ESE 7.4 km/h   38 % 0.0 mm 218.0 W/m2 CLR
17:23 32.1 °C 16.4 °C 1013.8 hPa ESE 14.8 km/h 14.8 km/h 39 % 0.0 mm 178.0 W/m2 CLR
17:28 31.8 °C 16.6 °C 1013.8 hPa ENE 16.7 km/h 16.7 km/h 40 % 0.0 mm 155.0 W/m2 CLR
17:33 31.7 °C 16.4 °C 1013.8 hPa East 9.3 km/h 9.3 km/h 40 % 0.0 mm 128.0 W/m2 CLR
17:38 31.6 °C 16.4 °C 1013.4 hPa ESE 14.8 km/h 14.8 km/h 40 % 0.0 mm 130.0 W/m2 CLR
17:43 31.6 °C 16.3 °C 1013.4 hPa ESE 6.4 km/h 6.4 km/h 40 % 0.0 mm 128.0 W/m2 CLR
17:48 31.5 °C 16.3 °C 1013.4 hPa ESE 11.1 km/h 11.1 km/h 40 % 0.0 mm 132.0 W/m2 CLR
17:53 31.5 °C 16.7 °C 1013.1 hPa ESE 6.4 km/h 6.4 km/h 41 % 0.0 mm 135.0 W/m2 CLR
17:58 31.5 °C 16.7 °C 1013.1 hPa SE 5.6 km/h 5.6 km/h 41 % 0.0 mm 142.0 W/m2 CLR
18:03 31.5 °C 19.5 °C 1013.1 hPa WSW 17.7 km/h 17.7 km/h 49 % 0.0 mm 146.0 W/m2 CLR
18:08 30.8 °C 20.4 °C 1013.1 hPa WSW 5.6 km/h   54 % 0.0 mm 132.0 W/m2 CLR
18:13 30.3 °C 20.3 °C 1013.1 hPa WNW 12.9 km/h 12.9 km/h 55 % 0.0 mm 134.0 W/m2 CLR
18:18 29.8 °C 20.1 °C 1013.1 hPa West 17.7 km/h 17.7 km/h 56 % 0.0 mm 134.0 W/m2 CLR
18:23 29.2 °C 19.8 °C 1013.1 hPa West 11.1 km/h 11.1 km/h 57 % 0.0 mm 137.0 W/m2 CLR
18:28 27.8 °C 18.8 °C 1013.1 hPa WSW 14.5 km/h 14.5 km/h 58 % 0.0 mm 144.0 W/m2 CLR
18:33 28.4 °C 19.4 °C 1013.1 hPa West 18.5 km/h 18.5 km/h 58 % 0.0 mm 158.0 W/m2 CLR
18:38 28.3 °C 19.3 °C 1013.1 hPa WSW 5.6 km/h 8.5 km/h 58 % 0.0 mm 160.0 W/m2 CLR
18:44 28.1 °C 18.7 °C 1013.1 hPa Calm     57 % 0.0 mm 109.0 W/m2 OVC
18:49 27.9 °C 18.6 °C 1013.1 hPa Calm     57 % 0.0 mm 97.0 W/m2 CLR
18:54 27.7 °C 18.7 °C 1013.1 hPa Calm     58 % 0.0 mm 93.0 W/m2 CLR
18:59 27.6 °C 18.9 °C 1013.1 hPa NW 8.0 km/h 8.0 km/h 59 % 0.0 mm 95.0 W/m2 CLR
19:04 27.4 °C 19.2 °C 1013.1 hPa WNW 3.7 km/h   61 % 0.0 mm 93.0 W/m2 CLR
19:09 27.3 °C 19.1 °C 1013.1 hPa WNW 7.4 km/h 7.4 km/h 61 % 0.0 mm 81.0 W/m2 CLR
19:14 27.1 °C 19.2 °C 1013.1 hPa Calm     62 % 0.0 mm 63.0 W/m2 FEW
19:19 26.9 °C 19.0 °C 1013.1 hPa West 5.6 km/h   62 % 0.0 mm 42.0 W/m2 FEW
19:24 26.8 °C 19.2 °C 1013.1 hPa WNW 6.4 km/h 6.4 km/h 63 % 0.0 mm 33.0 W/m2 SCT
19:30 26.7 °C 19.3 °C 1013.1 hPa Calm     64 % 0.0 mm 35.0 W/m2 BKN
19:35 26.6 °C 19.2 °C 1013.1 hPa Calm     64 % 0.0 mm 37.0 W/m2 BKN
19:40 26.6 °C 19.4 °C 1013.1 hPa Calm     65 % 0.0 mm 33.0 W/m2 BKN
19:45 26.4 °C 19.3 °C 1013.1 hPa Calm     65 % 0.0 mm 25.0 W/m2 BKN
19:50 26.4 °C 19.3 °C 1013.1 hPa Calm     65 % 0.0 mm 18.0 W/m2 BKN
19:55 26.4 °C 19.3 °C 1013.1 hPa Calm     65 % 0.0 mm 14.0 W/m2 BKN
20:00 26.3 °C 19.2 °C 1013.1 hPa Calm     65 % 0.0 mm 12.0 W/m2 BKN
20:05 26.3 °C 19.4 °C 1013.1 hPa Calm     66 % 0.0 mm 12.0 W/m2 BKN
20:10 26.2 °C 19.3 °C 1013.1 hPa Calm     66 % 0.0 mm 11.0 W/m2 BKN
20:15 26.1 °C 19.4 °C 1013.1 hPa Calm     67 % 0.0 mm 7.0 W/m2 BKN
20:20 26.0 °C 19.4 °C 1013.1 hPa Calm     67 % 0.0 mm 0.0 W/m2 OVC
20:25 25.9 °C 19.6 °C 1013.1 hPa Calm     68 % 0.0 mm 0.0 W/m2 OVC
20:30 25.9 °C 19.8 °C 1013.1 hPa Calm     69 % 0.0 mm 0.0 W/m2 OVC
20:35 25.8 °C 19.7 °C 1013.1 hPa Calm     69 % 0.0 mm 0.0 W/m2 OVC
20:40 25.8 °C 19.9 °C 1013.1 hPa Calm     70 % 0.0 mm 0.0 W/m2 OVC
20:45 25.7 °C 20.2 °C 1013.1 hPa Calm     72 % 0.0 mm 0.0 W/m2 OVC
20:50 25.6 °C 20.1 °C 1013.1 hPa Calm     72 % 0.0 mm 0.0 W/m2 CLR
20:55 25.4 °C 20.0 °C 1013.1 hPa Calm     72 % 0.0 mm 0.0 W/m2 CLR
21:00 25.3 °C 20.2 °C 1013.1 hPa Calm     73 % 0.0 mm 0.0 W/m2 CLR
21:05 25.3 °C 20.3 °C 1013.1 hPa Calm     74 % 0.0 mm 0.0 W/m2 CLR
21:10 25.2 °C 20.4 °C 1013.4 hPa Calm     75 % 0.0 mm 0.0 W/m2 CLR
21:15 25.0 °C 20.9 °C 1013.4 hPa Calm     78 % 0.0 mm 0.0 W/m2 CLR
21:20 24.8 °C 20.7 °C 1013.8 hPa Calm     78 % 0.0 mm 0.0 W/m2 CLR
21:30 24.6 °C 20.4 °C 1014.1 hPa Calm     78 % 0.0 mm 0.0 W/m2 CLR
21:35 24.6 °C 20.7 °C 1014.1 hPa Calm     79 % 0.0 mm 0.0 W/m2 CLR
21:40 24.5 °C 20.6 °C 1014.4 hPa Calm     79 % 0.0 mm 0.0 W/m2 CLR
21:45 24.5 °C 20.6 °C 1014.4 hPa Calm     79 % 0.0 mm 0.0 W/m2 CLR
21:50 24.4 °C 19.9 °C 1014.4 hPa SW 1.9 km/h 1.9 km/h 76 % 0.0 mm 0.0 W/m2 CLR
21:55 24.5 °C 19.8 °C 1014.8 hPa SW 5.6 km/h 5.6 km/h 75 % 0.0 mm 0.0 W/m2 CLR
22:14 24.6 °C 19.6 °C 1015.1 hPa SW 14.8 km/h 14.8 km/h 74 % 0.0 mm 0.0 W/m2 CLR
22:19 24.4 °C 19.3 °C 1015.1 hPa SSW 14.8 km/h 14.8 km/h 73 % 0.0 mm 0.0 W/m2 CLR
22:24 24.4 °C 19.0 °C 1015.5 hPa WSW 17.7 km/h 17.7 km/h 72 % 0.0 mm 0.0 W/m2 CLR
22:29 24.3 °C 18.7 °C 1015.8 hPa West 30.6 km/h 30.6 km/h 71 % 0.0 mm 0.0 W/m2 CLR
22:34 24.2 °C 18.6 °C 1015.8 hPa WSW 32.2 km/h 32.2 km/h 71 % 0.0 mm 0.0 W/m2 CLR
22:39 23.9 °C 18.8 °C 1016.1 hPa WSW 25.9 km/h 25.9 km/h 73 % 0.0 mm 0.0 W/m2 CLR
22:45 23.7 °C 18.6 °C 1016.1 hPa WSW 31.5 km/h 31.5 km/h 73 % 0.0 mm 0.0 W/m2 CLR
22:50 23.5 °C 18.6 °C 1016.1 hPa SW 27.8 km/h 27.8 km/h 74 % 0.0 mm 0.0 W/m2 CLR
22:55 23.3 °C 18.6 °C 1016.1 hPa WSW 33.3 km/h 33.3 km/h 75 % 0.0 mm 0.0 W/m2 CLR
23:00 23.1 °C 18.8 °C 1016.1 hPa SW 33.3 km/h 33.3 km/h 77 % 0.0 mm 0.0 W/m2 CLR
23:05 22.8 °C 18.7 °C 1016.1 hPa SW 35.2 km/h 35.2 km/h 78 % 0.0 mm 0.0 W/m2 CLR
23:10 22.5 °C 18.7 °C 1016.5 hPa SW 24.1 km/h 24.1 km/h 79 % 0.0 mm 0.0 W/m2 CLR
23:15 22.3 °C 18.8 °C 1016.5 hPa SW 20.4 km/h 20.4 km/h 81 % 0.0 mm 0.0 W/m2 CLR
23:20 22.1 °C 18.8 °C 1016.5 hPa WSW 14.8 km/h 14.8 km/h 82 % 0.0 mm 0.0 W/m2 CLR
23:25 21.8 °C 18.8 °C 1016.8 hPa WSW 24.1 km/h 24.1 km/h 83 % 0.0 mm 0.0 W/m2 CLR
23:30 21.6 °C 19.0 °C 1016.8 hPa SW 27.4 km/h 27.4 km/h 85 % 0.0 mm 0.0 W/m2 CLR
23:35 21.5 °C 18.9 °C 1017.2 hPa SW 22.5 km/h 22.5 km/h 85 % 0.0 mm 0.0 W/m2 CLR
23:40 21.4 °C 18.8 °C 1017.2 hPa SW 31.5 km/h 31.5 km/h 85 % 0.0 mm 0.0 W/m2 CLR
23:45 21.3 °C 18.7 °C 1017.2 hPa WSW 29.0 km/h 29.0 km/h 85 % 0.0 mm 0.0 W/m2 CLR
23:50 21.2 °C 18.6 °C 1017.2 hPa SW 27.8 km/h 27.8 km/h 85 % 0.0 mm 0.0 W/m2 CLR
23:55 21.2 °C 18.6 °C 1017.2 hPa WSW 24.1 km/h 24.1 km/h 85 % 0.0 mm 0.0 W/m2 CLR
Lo Temps de Massalio
Compliments of Weather Underground - 512 kb